岡山グライダークラブ活動状況掲示板

岡山グライダークラブ
岡山市浦安南町639-1 岡南飛行場
 使用機:シャイベ式 SF25C型 ファルケ   JA2330
      ヴァレンティン式17E型 タイフーン  JA2342
 練習日:毎日曜日  クラブルーム:電話 086-265-1810
この掲示板は岡山グライダークラブの活動状況をお知らせする掲示板です。
!!!この掲示板は投稿規制をしています。!!!
クラブ関連各種情報は 岡山グライダークラブクラブルーム      を       .
  ブリーフイング情報は  岡山グライダークラブブリーフィングルーム  をご覧下さい。 .
※写真はクリックすると拡大して見ることが出来ます。
岡南飛行場へのアクセス等は 岡南飛行場管理事務所 をご覧ください。
クラブの ホームページ ができました。

!!!当クラブの見学等を希望される方は こちら をご覧ください!!!

 
01月10日
by OGC at 2021/1/10(日) 21:22:06 No.20210110211807  削除コメント
1024 x 768 x 101,293バイト
No.1

01月10日
本日の参加者
  会員      14名
  その他      0名


@本日の様子






METAR
RJBK 100000Z 26010KT 30KM FEW025CU 00/M06 Q1022 A3018
RJOB 100000Z 27010KT 9999 FEW020 M01/M06 Q1021
RJOT 100000Z 26005KT 220V300 9999 FEW020 SCT030 00/M05 Q1022
RJOA 100000Z 29005KT 9999 FEW025 M03/M06 Q1022

TAF
RJOB 092313Z 1000/1106 26012KT 9999 FEW025
     BECMG 1018/1021 06004KT
     BECMG 1100/1103 20005KT
RJOT 092310Z 1000/1106 26012KT 9999 FEW020 SCT035
     BECMG 1009/1011 20006KT
RJOA 092308Z 1000/1106 28009KT 9999 FEW020 BKN035

今年初めての訓練日、天候は快晴、気温は0℃、風は正対風、積雲も昼過ぎからでき始め、サーマルソアリングを楽しめる一日でした。
来週は総会を予定しておりますので、会員の方はご参加をお願いします。


解散    17:30

1番機  11:15離陸 撤収機  17:00着陸 

SF25C JA2330 ファルケ     06Flt.1h50min  
17E   JA2342 タイフーン    06Flt.2h15min  
合計                    12Flt.4h05min

    << 戻る || ホームページ || 最新の掲示板へ